Startpagina
METAR-TAF:

METAR-TAF

Vliegvelden :

Bordj Badji Mokhtar, Algerije

breedte: 21-22-30N, lengte: 000-55-26E, hoogte: 396 m

Actueel weer

Dit bericht is 31 minuten geleden gemaakt, om 17:00 UTC
Weinig wind
Temperatuur 31°C
Druk 1017 hPa
Zicht 10 km of meer
geen wolken onder 1500 m en geen cumulonimbus

METAR: DATM 261700Z 00000KT CAVOK 31/// Q1017

Tijdstip: 18:31 (17:31 UTC)

Verwachting

Dit bericht is 3 uur en het 31 minuten geleden gemaakt, om 14:00 UTC
Verwachting geldig van 26 om 15 UTC tot 26 om 24 UTC
Wind 6 kt uit het zuidzuidoosten
Zicht 10 km of meer
geen wolken onder 1500 m en geen cumulonimbus

TAF: DATM 261400Z 2615/2624 16006KT CAVOK

Waarnemingen en weersverwachtingen van meer dan 4000 vliegvelden (METAR en TAF).

De beschikbare stations zijn de gele en rode punten op de kaart.

Ga met uw muis naar het station om de naam te zien.

Klik dan om waarnemingen en weersverwachtingen te zien.

kaart wijzigen: klik op de groene knoppen met een zwart kruis om in te zoomen, op de groene knop met een streepje om uit te zoomen of op de groene pijlen voor aangrenzende kaarten.


METAR-TAF: